Time;durP1;ratioP1;P1;durP2;ratioP2;P2;SDS_P1;SDS_P2;PMS_P1;PMS_P2;Temp;Humidity;BMP_temperature;BMP_pressure;BME280_temperature;BME280_humidity;BME280_pressure;Samples;Min_cycle;Max_cycle;Signal;HPM_P1;HPM_P2
2021/04/24 00:01:40;;;;;;;15.77;12.73;;;;;;;;;;4993526;28;20833;-60
2021/04/24 00:04:08;;;;;;;15.43;12.00;;;;;;;;;;4989893;28;20994;-61
2021/04/24 00:06:34;;;;;;;17.60;12.83;;;;;;;;;;4992148;28;20450;-60
2021/04/24 00:09:02;;;;;;;17.47;12.87;;;;;;;;;;5006136;28;20492;-60
2021/04/24 00:11:28;;;;;;;17.60;13.13;;;;;;;;;;5007266;28;20496;-60
2021/04/24 00:13:55;;;;;;;13.57;12.10;;;;;;;;;;5007375;28;20468;-61
2021/04/24 00:16:22;;;;;;;18.77;12.87;;;;;;;;;;5004184;28;20975;-60
2021/04/24 00:18:49;;;;;;;18.67;13.20;;;;;;;;;;5002241;28;20472;-60
2021/04/24 00:21:16;;;;;;;19.23;12.77;;;;;;;;;;4999886;28;20480;-60
2021/04/24 00:23:43;;;;;;;16.50;13.83;;;;;;;;;;5011383;28;20500;-60
2021/04/24 00:26:10;;;;;;;15.50;11.63;;;;;;;;;;5009422;28;20473;-60
2021/04/24 00:28:36;;;;;;;18.87;13.50;;;;;;;;;;4998652;28;21013;-60
2021/04/24 00:31:03;;;;;;;18.63;12.40;;;;;;;;;;4996348;28;20495;-60
2021/04/24 00:33:30;;;;;;;17.33;11.80;;;;;;;;;;4992671;28;20485;-61
2021/04/24 00:35:56;;;;;;;16.27;10.80;;;;;;;;;;5002581;28;20469;-60
2021/04/24 00:38:24;;;;;;;15.70;10.87;;;;;;;;;;5006272;28;20442;-60
2021/04/24 00:40:51;;;;;;;12.87;11.40;;;;;;;;;;5010158;28;21004;-60
2021/04/24 00:43:18;;;;;;;16.47;11.43;;;;;;;;;;5015815;28;20469;-61
2021/04/24 00:45:44;;;;;;;13.83;10.60;;;;;;;;;;5002385;28;20466;-60
2021/04/24 00:48:12;;;;;;;18.07;10.67;;;;;;;;;;4996233;28;20860;-60
2021/04/24 00:50:39;;;;;;;14.10;10.80;;;;;;;;;;4999159;28;21007;-59
2021/04/24 00:53:07;;;;;;;13.13;10.40;;;;;;;;;;5007032;28;20519;-60
2021/04/24 00:55:34;;;;;;;14.63;11.07;;;;;;;;;;4996702;28;20461;-60
2021/04/24 00:58:01;;;;;;;14.00;10.87;;;;;;;;;;5010337;28;20933;-60
2021/04/24 01:00:28;;;;;;;14.93;10.50;;;;;;;;;;5002178;28;21030;-60
2021/04/24 01:02:57;;;;;;;12.87;10.77;;;;;;;;;;5011686;28;20512;-60
2021/04/24 01:05:24;;;;;;;14.80;9.97;;;;;;;;;;5006860;28;20469;-60
2021/04/24 01:07:51;;;;;;;13.73;10.90;;;;;;;;;;5004021;28;20485;-59
2021/04/24 01:10:19;;;;;;;12.83;10.80;;;;;;;;;;4991636;28;20508;-60
2021/04/24 01:12:48;;;;;;;16.07;11.43;;;;;;;;;;4991201;28;20462;-61
2021/04/24 01:15:16;;;;;;;16.83;10.50;;;;;;;;;;5005549;28;20468;-60
2021/04/24 01:17:43;;;;;;;12.20;10.10;;;;;;;;;;5011445;28;21032;-60
2021/04/24 01:20:10;;;;;;;16.13;10.97;;;;;;;;;;5007466;28;20534;-60
2021/04/24 01:22:38;;;;;;;17.50;10.63;;;;;;;;;;5001120;28;20469;-60
2021/04/24 01:25:06;;;;;;;12.30;10.30;;;;;;;;;;5006240;28;20498;-60
2021/04/24 01:27:33;;;;;;;19.93;10.60;;;;;;;;;;5010155;28;20469;-60
2021/04/24 01:29:59;;;;;;;11.37;10.20;;;;;;;;;;4994984;28;20486;-60
2021/04/24 01:32:26;;;;;;;15.87;10.10;;;;;;;;;;4991966;28;20451;-60
2021/04/24 01:34:52;;;;;;;14.20;10.07;;;;;;;;;;5001098;28;20523;-60
2021/04/24 01:37:19;;;;;;;20.57;12.00;;;;;;;;;;5011075;28;20464;-60
2021/04/24 01:39:46;;;;;;;16.67;10.33;;;;;;;;;;5000522;28;20496;-60
2021/04/24 01:42:13;;;;;;;17.07;11.30;;;;;;;;;;5011651;28;20450;-60
2021/04/24 01:44:40;;;;;;;12.77;11.13;;;;;;;;;;4996358;28;20466;-59
2021/04/24 01:47:06;;;;;;;16.67;11.77;;;;;;;;;;4994949;28;20477;-60
2021/04/24 01:49:33;;;;;;;13.20;11.47;;;;;;;;;;5006875;28;20493;-59
2021/04/24 01:51:59;;;;;;;15.20;10.73;;;;;;;;;;5009493;28;20481;-59
2021/04/24 01:54:26;;;;;;;12.20;9.90;;;;;;;;;;5001079;28;20883;-60
2021/04/24 01:56:54;;;;;;;12.03;10.13;;;;;;;;;;5005573;28;20473;-60
2021/04/24 01:59:22;;;;;;;11.73;10.07;;;;;;;;;;5012413;28;20477;-60
2021/04/24 02:01:49;;;;;;;14.67;10.60;;;;;;;;;;5009195;28;20509;-60
2021/04/24 02:04:16;;;;;;;15.00;10.80;;;;;;;;;;4993905;28;20476;-60
2021/04/24 02:06:43;;;;;;;19.80;11.57;;;;;;;;;;4997692;28;20450;-60
2021/04/24 02:09:10;;;;;;;17.03;11.97;;;;;;;;;;5004324;28;20585;-60
2021/04/24 02:11:37;;;;;;;17.33;11.80;;;;;;;;;;4995471;28;20467;-60
2021/04/24 02:14:05;;;;;;;14.63;10.90;;;;;;;;;;5012904;28;20500;-60
2021/04/24 02:16:31;;;;;;;15.67;11.50;;;;;;;;;;4996047;28;20459;-60
2021/04/24 02:18:59;;;;;;;14.07;11.60;;;;;;;;;;4984606;28;20481;-60
2021/04/24 02:21:25;;;;;;;11.87;10.67;;;;;;;;;;4994735;28;20876;-60
2021/04/24 02:23:52;;;;;;;16.13;11.13;;;;;;;;;;5005130;28;20474;-60
2021/04/24 02:26:18;;;;;;;14.50;10.93;;;;;;;;;;4998462;28;20807;-60
2021/04/24 02:28:45;;;;;;;11.27;10.13;;;;;;;;;;4994788;28;20497;-60
2021/04/24 02:31:12;;;;;;;14.60;11.00;;;;;;;;;;4994778;28;20949;-60
2021/04/24 02:33:39;;;;;;;14.40;11.00;;;;;;;;;;4993731;28;20466;-60
2021/04/24 02:36:06;;;;;;;17.87;11.30;;;;;;;;;;4994620;28;20812;-60
2021/04/24 02:38:34;;;;;;;16.47;11.03;;;;;;;;;;5009119;28;20476;-61
2021/04/24 02:41:01;;;;;;;12.80;11.50;;;;;;;;;;4994358;28;20513;-60
2021/04/24 02:43:27;;;;;;;18.10;10.03;;;;;;;;;;5005512;28;20476;-60
2021/04/24 02:45:54;;;;;;;15.50;11.00;;;;;;;;;;4993621;28;20474;-60
2021/04/24 02:48:22;;;;;;;15.43;11.07;;;;;;;;;;5002486;28;20485;-60
2021/04/24 02:50:49;;;;;;;15.90;10.50;;;;;;;;;;4999806;28;20477;-60
2021/04/24 02:53:16;;;;;;;15.63;11.87;;;;;;;;;;4998979;28;20473;-60
2021/04/24 02:55:42;;;;;;;13.30;10.47;;;;;;;;;;4996847;28;20817;-60
2021/04/24 02:58:09;;;;;;;14.60;11.53;;;;;;;;;;5012887;28;20999;-60
2021/04/24 03:00:36;;;;;;;15.07;10.40;;;;;;;;;;4993843;28;20495;-60
2021/04/24 03:03:03;;;;;;;13.57;10.63;;;;;;;;;;4993686;28;20457;-60
2021/04/24 03:05:30;;;;;;;12.50;8.73;;;;;;;;;;5009524;28;20485;-60
2021/04/24 03:07:57;;;;;;;16.73;10.07;;;;;;;;;;5007008;28;20486;-60
2021/04/24 03:10:25;;;;;;;14.10;10.30;;;;;;;;;;5013418;28;20869;-61
2021/04/24 03:12:52;;;;;;;16.50;10.40;;;;;;;;;;4999403;28;20989;-61
2021/04/24 03:15:19;;;;;;;12.17;9.87;;;;;;;;;;4993801;28;20450;-61
2021/04/24 03:17:46;;;;;;;12.83;9.53;;;;;;;;;;4993586;28;20468;-60
2021/04/24 03:20:14;;;;;;;17.67;9.73;;;;;;;;;;4993586;28;20474;-60
2021/04/24 03:22:42;;;;;;;11.30;9.03;;;;;;;;;;5000984;28;21024;-60
2021/04/24 03:25:09;;;;;;;18.30;10.10;;;;;;;;;;4995896;28;20956;-61
2021/04/24 03:27:36;;;;;;;13.93;9.77;;;;;;;;;;5000002;28;20446;-60
2021/04/24 03:30:04;;;;;;;11.37;9.20;;;;;;;;;;4992477;28;20490;-60
2021/04/24 03:32:31;;;;;;;11.80;9.50;;;;;;;;;;4996701;28;20470;-60
2021/04/24 03:34:57;;;;;;;16.20;10.13;;;;;;;;;;4993292;28;21161;-60
2021/04/24 03:37:24;;;;;;;11.30;8.27;;;;;;;;;;5001647;28;20470;-60
2021/04/24 03:39:51;;;;;;;10.33;8.13;;;;;;;;;;4993579;28;20478;-60
2021/04/24 03:42:18;;;;;;;12.10;9.90;;;;;;;;;;4991647;28;20470;-60
2021/04/24 03:44:45;;;;;;;13.57;9.17;;;;;;;;;;4992920;28;20960;-60
2021/04/24 03:47:11;;;;;;;15.73;8.93;;;;;;;;;;5002183;28;20477;-60
2021/04/24 03:49:38;;;;;;;10.53;9.17;;;;;;;;;;4992857;28;20498;-60
2021/04/24 03:52:05;;;;;;;10.40;8.30;;;;;;;;;;5008244;28;20519;-60
2021/04/24 03:54:31;;;;;;;14.73;10.23;;;;;;;;;;5011849;28;20478;-60
2021/04/24 03:56:59;;;;;;;11.70;9.07;;;;;;;;;;4994822;28;20505;-60
2021/04/24 03:59:26;;;;;;;13.40;8.90;;;;;;;;;;4993757;28;20479;-60
2021/04/24 04:01:53;;;;;;;11.63;8.77;;;;;;;;;;4997634;28;20995;-60
2021/04/24 04:04:19;;;;;;;12.53;8.93;;;;;;;;;;5011498;28;20466;-60
2021/04/24 04:06:46;;;;;;;12.60;9.87;;;;;;;;;;4995981;28;20450;-60
2021/04/24 04:09:13;;;;;;;11.33;9.60;;;;;;;;;;4997949;28;20493;-60
2021/04/24 04:11:39;;;;;;;12.90;9.60;;;;;;;;;;4997381;28;20446;-60
2021/04/24 04:14:07;;;;;;;13.37;10.03;;;;;;;;;;4997262;28;20465;-60
2021/04/24 04:16:33;;;;;;;13.63;10.33;;;;;;;;;;5007490;28;20975;-60
2021/04/24 04:19:00;;;;;;;16.13;11.10;;;;;;;;;;4992736;28;20485;-60
2021/04/24 04:21:26;;;;;;;13.13;10.20;;;;;;;;;;4992971;28;21549;-60
2021/04/24 04:23:53;;;;;;;15.07;10.97;;;;;;;;;;4999021;28;20466;-60
2021/04/24 04:26:20;;;;;;;12.80;11.00;;;;;;;;;;5010548;28;20469;-60
2021/04/24 04:28:46;;;;;;;13.97;9.87;;;;;;;;;;4994788;28;20482;-60
2021/04/24 04:31:14;;;;;;;14.10;10.77;;;;;;;;;;5001067;28;20466;-60
2021/04/24 04:33:40;;;;;;;11.50;10.00;;;;;;;;;;5011542;28;20450;-60
2021/04/24 04:36:07;;;;;;;11.63;10.27;;;;;;;;;;5006201;28;20535;-60
2021/04/24 04:38:34;;;;;;;16.17;11.00;;;;;;;;;;5011563;28;20446;-60
2021/04/24 04:41:00;;;;;;;11.13;9.90;;;;;;;;;;5007343;28;20489;-60
2021/04/24 04:43:27;;;;;;;14.00;9.57;;;;;;;;;;5011401;28;20507;-60
2021/04/24 04:45:54;;;;;;;12.97;11.00;;;;;;;;;;4999899;28;20470;-60
2021/04/24 04:48:22;;;;;;;11.87;10.50;;;;;;;;;;5007725;28;20489;-60
2021/04/24 04:50:48;;;;;;;12.87;10.80;;;;;;;;;;5003663;28;20486;-60
2021/04/24 04:53:15;;;;;;;12.60;10.10;;;;;;;;;;5010960;28;20454;-60
2021/04/24 04:55:41;;;;;;;12.20;9.60;;;;;;;;;;5006687;28;20523;-60
2021/04/24 04:58:08;;;;;;;13.20;9.70;;;;;;;;;;5011493;28;20460;-60
2021/04/24 05:00:35;;;;;;;11.30;9.10;;;;;;;;;;4994611;28;20866;-60
2021/04/24 05:03:02;;;;;;;12.47;8.73;;;;;;;;;;5003981;28;21066;-60
2021/04/24 05:05:29;;;;;;;10.20;9.10;;;;;;;;;;5007237;28;20600;-60
2021/04/24 05:07:56;;;;;;;15.33;9.33;;;;;;;;;;5011343;28;20500;-59
2021/04/24 05:10:23;;;;;;;11.97;7.83;;;;;;;;;;5009808;28;20486;-60
2021/04/24 05:12:50;;;;;;;9.70;8.63;;;;;;;;;;5010901;28;21231;-60
2021/04/24 05:15:16;;;;;;;10.63;8.77;;;;;;;;;;5003006;28;20474;-60
2021/04/24 05:17:43;;;;;;;15.10;8.50;;;;;;;;;;5007589;28;20902;-59
2021/04/24 05:20:10;;;;;;;14.47;7.53;;;;;;;;;;5004895;28;20489;-60
2021/04/24 05:22:38;;;;;;;9.83;7.47;;;;;;;;;;4990155;28;20451;-60
2021/04/24 05:25:05;;;;;;;12.20;7.50;;;;;;;;;;4993810;28;20450;-59
2021/04/24 05:27:32;;;;;;;9.47;7.70;;;;;;;;;;5009859;28;20543;-60
2021/04/24 05:29:58;;;;;;;7.77;6.60;;;;;;;;;;5000125;28;20498;-60
2021/04/24 05:32:25;;;;;;;13.50;8.40;;;;;;;;;;5011025;28;20812;-60
2021/04/24 05:34:52;;;;;;;11.03;6.57;;;;;;;;;;5012855;28;20461;-60
2021/04/24 05:37:18;;;;;;;12.93;7.73;;;;;;;;;;5014218;28;20534;-60
2021/04/24 05:39:46;;;;;;;9.13;7.23;;;;;;;;;;5015486;28;20461;-60
2021/04/24 05:42:13;;;;;;;9.93;6.60;;;;;;;;;;4996097;28;20525;-60
2021/04/24 05:44:40;;;;;;;12.80;7.40;;;;;;;;;;4995226;28;20445;-60
2021/04/24 05:47:07;;;;;;;8.27;6.77;;;;;;;;;;5010624;28;20501;-61
2021/04/24 05:49:34;;;;;;;8.57;6.17;;;;;;;;;;5010204;28;20494;-62
2021/04/24 05:52:00;;;;;;;5.43;3.40;;;;;;;;;;4995109;28;20466;-60
2021/04/24 05:54:27;;;;;;;5.27;3.47;;;;;;;;;;4995471;28;20454;-59
2021/04/24 05:56:55;;;;;;;8.97;3.47;;;;;;;;;;4996140;28;20462;-58
2021/04/24 05:59:22;;;;;;;4.43;3.00;;;;;;;;;;4995075;28;20561;-58
2021/04/24 06:01:48;;;;;;;4.67;3.20;;;;;;;;;;5005388;28;20933;-58
2021/04/24 06:04:15;;;;;;;9.10;4.83;;;;;;;;;;5008464;28;20513;-58
2021/04/24 06:06:42;;;;;;;6.73;3.17;;;;;;;;;;4996232;28;20509;-58
2021/04/24 06:09:09;;;;;;;4.73;2.97;;;;;;;;;;5014548;23;21036;-64
2021/04/24 06:11:35;;;;;;;6.10;3.27;;;;;;;;;;4995066;28;20447;-64
2021/04/24 06:14:03;;;;;;;4.60;3.30;;;;;;;;;;4994870;28;20464;-64
2021/04/24 06:16:30;;;;;;;5.10;2.50;;;;;;;;;;4996696;28;20446;-64
2021/04/24 06:18:57;;;;;;;6.40;2.57;;;;;;;;;;4995344;28;20997;-64
2021/04/24 06:21:23;;;;;;;5.03;3.23;;;;;;;;;;5003190;28;20521;-64
2021/04/24 06:23:50;;;;;;;8.00;4.30;;;;;;;;;;4996034;28;20446;-64
2021/04/24 06:26:17;;;;;;;6.43;2.60;;;;;;;;;;5003014;28;20456;-64
2021/04/24 06:28:44;;;;;;;7.10;2.80;;;;;;;;;;5001772;28;20533;-64
2021/04/24 06:31:11;;;;;;;5.77;3.20;;;;;;;;;;4995930;28;20540;-64
2021/04/24 06:33:38;;;;;;;6.40;2.60;;;;;;;;;;4995675;28;20948;-64
2021/04/24 06:36:05;;;;;;;3.43;2.37;;;;;;;;;;5000559;28;20537;-64
2021/04/24 06:38:32;;;;;;;5.00;2.77;;;;;;;;;;5014137;28;20976;-64
2021/04/24 06:40:59;;;;;;;4.73;2.80;;;;;;;;;;5013238;28;20533;-64
2021/04/24 06:43:26;;;;;;;7.40;2.60;;;;;;;;;;5001162;28;20482;-64
2021/04/24 06:45:52;;;;;;;4.83;2.60;;;;;;;;;;4994367;28;20467;-65
2021/04/24 06:48:20;;;;;;;5.60;2.87;;;;;;;;;;4994029;28;20540;-64
2021/04/24 06:50:46;;;;;;;6.37;2.80;;;;;;;;;;4995787;28;20841;-64
2021/04/24 06:53:13;;;;;;;3.93;2.53;;;;;;;;;;4995367;28;20450;-64
2021/04/24 06:55:40;;;;;;;5.23;2.80;;;;;;;;;;4978960;28;20467;-64
2021/04/24 06:58:06;;;;;;;5.50;2.83;;;;;;;;;;5013459;28;20457;-64
2021/04/24 07:00:33;;;;;;;4.23;2.70;;;;;;;;;;5003001;28;20814;-66
2021/04/24 07:03:00;;;;;;;4.57;2.57;;;;;;;;;;4998578;28;20459;-65
2021/04/24 07:05:27;;;;;;;6.87;2.67;;;;;;;;;;4991441;28;20462;-65
2021/04/24 07:07:54;;;;;;;6.30;3.37;;;;;;;;;;4999254;28;20456;-63
2021/04/24 07:10:20;;;;;;;5.93;3.60;;;;;;;;;;4986714;28;20479;-65
2021/04/24 07:12:47;;;;;;;6.80;2.70;;;;;;;;;;4995177;28;20454;-65
2021/04/24 07:15:14;;;;;;;5.57;3.10;;;;;;;;;;4994641;28;20454;-66
2021/04/24 07:17:41;;;;;;;7.13;2.60;;;;;;;;;;4997988;28;20485;-66
2021/04/24 07:20:09;;;;;;;10.43;3.60;;;;;;;;;;4998018;28;20553;-66
2021/04/24 07:22:36;;;;;;;4.60;2.13;;;;;;;;;;5014251;28;20932;-66
2021/04/24 07:25:04;;;;;;;2.93;2.20;;;;;;;;;;5014840;28;20532;-66
2021/04/24 07:27:30;;;;;;;8.80;3.23;;;;;;;;;;4998656;28;20526;-67
2021/04/24 07:29:57;;;;;;;9.00;4.07;;;;;;;;;;4995961;28;20494;-66
2021/04/24 07:32:23;;;;;;;5.60;2.93;;;;;;;;;;4994225;28;20512;-66
2021/04/24 07:34:50;;;;;;;9.50;4.00;;;;;;;;;;4994311;28;20801;-66
2021/04/24 07:37:17;;;;;;;10.60;3.20;;;;;;;;;;4994680;28;20455;-67
2021/04/24 07:39:44;;;;;;;6.63;2.97;;;;;;;;;;5003977;28;20480;-68
2021/04/24 07:42:13;;;;;;;6.20;2.20;;;;;;;;;;5026333;28;20450;-67
2021/04/24 07:44:39;;;;;;;6.87;3.03;;;;;;;;;;5026009;28;20528;-67
2021/04/24 07:47:08;;;;;;;8.30;3.30;;;;;;;;;;5016087;28;20454;-67
2021/04/24 07:49:34;;;;;;;6.97;3.30;;;;;;;;;;5004722;28;20554;-67
2021/04/24 07:52:02;;;;;;;5.33;2.90;;;;;;;;;;5016395;28;20450;-69
2021/04/24 07:54:29;;;;;;;5.57;2.57;;;;;;;;;;5027484;28;20460;-67
2021/04/24 07:56:58;;;;;;;6.37;2.40;;;;;;;;;;5012430;28;20508;-67
2021/04/24 07:59:24;;;;;;;6.63;2.97;;;;;;;;;;5003861;28;20480;-67
2021/04/24 08:01:51;;;;;;;5.43;2.57;;;;;;;;;;4998712;28;20537;-67
2021/04/24 08:04:18;;;;;;;4.13;2.23;;;;;;;;;;4998943;28;20837;-67
2021/04/24 08:06:44;;;;;;;6.27;2.60;;;;;;;;;;5004294;28;20451;-67
2021/04/24 08:09:11;;;;;;;5.10;2.30;;;;;;;;;;5000274;28;20496;-70
2021/04/24 08:11:38;;;;;;;6.57;2.60;;;;;;;;;;4996441;28;20450;-68
2021/04/24 08:14:06;;;;;;;4.23;2.20;;;;;;;;;;5009715;28;20449;-67
2021/04/24 08:16:33;;;;;;;4.27;2.57;;;;;;;;;;5011918;28;20458;-67
2021/04/24 08:19:00;;;;;;;5.00;2.33;;;;;;;;;;4996046;28;20502;-66
2021/04/24 08:21:26;;;;;;;7.70;3.80;;;;;;;;;;5007254;28;20458;-65
2021/04/24 08:23:59;;;;;;;9.10;3.67;;;;;;;;;;5013172;28;20465;-66
2021/04/24 08:26:26;;;;;;;7.33;3.30;;;;;;;;;;5011815;28;20438;-68
2021/04/24 08:28:53;;;;;;;8.03;3.90;;;;;;;;;;5002481;28;20561;-67
2021/04/24 08:31:20;;;;;;;5.43;3.70;;;;;;;;;;5001266;28;20958;-67
2021/04/24 08:33:47;;;;;;;6.07;3.43;;;;;;;;;;5001019;28;20827;-66
2021/04/24 08:36:14;;;;;;;6.37;3.83;;;;;;;;;;4992604;28;20458;-66
2021/04/24 08:38:40;;;;;;;5.10;3.30;;;;;;;;;;4993370;28;20827;-66
2021/04/24 08:41:07;;;;;;;6.07;3.57;;;;;;;;;;4992847;28;20458;-67
2021/04/24 08:43:36;;;;;;;7.37;4.20;;;;;;;;;;4993135;28;20512;-66
2021/04/24 08:46:03;;;;;;;6.50;3.63;;;;;;;;;;4993149;28;20450;-67
2021/04/24 08:48:30;;;;;;;6.70;3.40;;;;;;;;;;4992429;28;20490;-66
2021/04/24 08:50:57;;;;;;;6.20;4.33;;;;;;;;;;4992919;28;20452;-67
2021/04/24 08:53:24;;;;;;;7.30;4.10;;;;;;;;;;4993233;28;20446;-66
2021/04/24 08:55:51;;;;;;;7.00;3.67;;;;;;;;;;4992146;28;20446;-66
2021/04/24 08:58:17;;;;;;;4.63;3.30;;;;;;;;;;4993136;28;20447;-66
2021/04/24 09:00:45;;;;;;;5.30;3.40;;;;;;;;;;4992998;28;20447;-66
2021/04/24 09:03:16;;;;;;;6.07;4.10;;;;;;;;;;4996488;28;20462;-66
2021/04/24 09:05:44;;;;;;;7.93;3.97;;;;;;;;;;4996219;28;20450;-66
2021/04/24 09:08:11;;;;;;;5.77;3.53;;;;;;;;;;4996524;28;20450;-66
2021/04/24 09:10:42;;;;;;;7.13;4.27;;;;;;;;;;4996186;28;20459;-67
2021/04/24 09:13:09;;;;;;;4.77;3.47;;;;;;;;;;4996885;28;20465;-66
2021/04/24 09:15:36;;;;;;;9.23;4.20;;;;;;;;;;4996435;28;20454;-66
2021/04/24 09:18:04;;;;;;;6.90;3.93;;;;;;;;;;4996328;28;20866;-65
2021/04/24 09:20:33;;;;;;;5.70;2.97;;;;;;;;;;4996113;28;20454;-66
2021/04/24 09:23:03;;;;;;;5.60;3.77;;;;;;;;;;4996096;28;20476;-66
2021/04/24 09:25:33;;;;;;;5.47;3.70;;;;;;;;;;4996133;28;20450;-66
2021/04/24 09:28:00;;;;;;;5.90;3.77;;;;;;;;;;4996156;28;20450;-66
2021/04/24 09:30:28;;;;;;;6.30;3.50;;;;;;;;;;4995749;28;20498;-66
2021/04/24 09:32:55;;;;;;;7.23;4.10;;;;;;;;;;4995794;28;20534;-66
2021/04/24 09:35:22;;;;;;;4.40;3.10;;;;;;;;;;4995757;28;20439;-65
2021/04/24 09:37:56;;;;;;;3.90;2.97;;;;;;;;;;4996040;28;20534;-66
2021/04/24 09:40:23;;;;;;;6.07;3.57;;;;;;;;;;4995807;28;20477;-66
2021/04/24 09:42:50;;;;;;;7.77;3.27;;;;;;;;;;4995967;28;20450;-66
2021/04/24 09:45:28;;;;;;;6.37;3.17;;;;;;;;;;4995555;28;20818;-66
2021/04/24 09:47:55;;;;;;;6.77;3.70;;;;;;;;;;4995349;28;20454;-66
2021/04/24 09:50:23;;;;;;;6.17;2.97;;;;;;;;;;4995146;28;20498;-65
2021/04/24 09:52:49;;;;;;;4.80;2.80;;;;;;;;;;4995214;28;20820;-66
2021/04/24 09:55:17;;;;;;;3.57;2.80;;;;;;;;;;4995433;28;20524;-67
2021/04/24 09:57:44;;;;;;;5.83;3.37;;;;;;;;;;4995874;28;20447;-67
2021/04/24 10:00:14;;;;;;;5.17;3.10;;;;;;;;;;4996162;28;20467;-67
2021/04/24 10:02:43;;;;;;;3.77;2.70;;;;;;;;;;4995058;28;20509;-66
2021/04/24 10:05:11;;;;;;;7.97;2.87;;;;;;;;;;4995170;28;20474;-65
2021/04/24 10:07:38;;;;;;;4.43;2.20;;;;;;;;;;4995222;28;20450;-67
2021/04/24 10:10:06;;;;;;;2.07;1.87;;;;;;;;;;4995474;28;20800;-67
2021/04/24 10:12:33;;;;;;;2.90;2.50;;;;;;;;;;4994687;28;20764;-67
2021/04/24 10:15:00;;;;;;;5.00;3.33;;;;;;;;;;4995730;28;20450;-66
2021/04/24 10:17:27;;;;;;;4.60;3.30;;;;;;;;;;4996041;28;21048;-67
2021/04/24 10:19:54;;;;;;;4.80;2.90;;;;;;;;;;4995302;28;20463;-67
2021/04/24 10:22:21;;;;;;;3.47;2.23;;;;;;;;;;4995767;28;20456;-67
2021/04/24 10:24:49;;;;;;;4.80;2.73;;;;;;;;;;4995794;28;20482;-67
2021/04/24 10:27:16;;;;;;;4.40;2.53;;;;;;;;;;4995095;28;20450;-66
2021/04/24 10:29:44;;;;;;;5.23;3.10;;;;;;;;;;4994954;28;20481;-67
2021/04/24 10:32:11;;;;;;;5.00;3.17;;;;;;;;;;4995185;28;20455;-67
2021/04/24 10:34:38;;;;;;;5.53;3.10;;;;;;;;;;4994532;28;20462;-67
2021/04/24 10:37:05;;;;;;;3.60;2.93;;;;;;;;;;4994722;28;20454;-67
2021/04/24 10:39:33;;;;;;;4.70;2.80;;;;;;;;;;4995202;28;20514;-66
2021/04/24 10:42:05;;;;;;;3.70;3.20;;;;;;;;;;4994596;28;20958;-66
2021/04/24 10:44:46;;;;;;;3.93;2.80;;;;;;;;;;4995135;28;20454;-67
2021/04/24 10:47:14;;;;;;;3.70;2.90;;;;;;;;;;4992703;28;20961;-67
2021/04/24 10:49:52;;;;;;;3.23;2.63;;;;;;;;;;4994851;28;20486;-67
2021/04/24 10:52:20;;;;;;;4.30;2.40;;;;;;;;;;4994751;28;20899;-67
2021/04/24 10:55:13;;;;;;;3.80;2.67;;;;;;;;;;4995199;28;20450;-67
2021/04/24 10:57:41;;;;;;;3.83;2.90;;;;;;;;;;4994859;28;20450;-66
2021/04/24 11:00:08;;;;;;;5.00;3.00;;;;;;;;;;4994704;28;20534;-67
2021/04/24 11:02:39;;;;;;;5.03;2.80;;;;;;;;;;4994427;28;20446;-67
2021/04/24 11:05:20;;;;;;;5.33;2.93;;;;;;;;;;4993682;28;20453;-66
2021/04/24 11:07:46;;;;;;;3.30;2.87;;;;;;;;;;4994291;28;20545;-66
2021/04/24 11:10:26;;;;;;;4.77;3.10;;;;;;;;;;4994387;28;20494;-66
2021/04/24 11:12:53;;;;;;;6.43;3.27;;;;;;;;;;4994189;28;21003;-67
2021/04/24 11:15:21;;;;;;;4.33;2.83;;;;;;;;;;4994342;28;20454;-67
2021/04/24 11:17:49;;;;;;;3.50;2.67;;;;;;;;;;4993983;28;20455;-67
2021/04/24 11:20:31;;;;;;;3.70;2.63;;;;;;;;;;4993719;28;20808;-67
2021/04/24 11:22:57;;;;;;;4.80;2.73;;;;;;;;;;4994263;28;20450;-67
2021/04/24 11:25:28;;;;;;;4.10;3.00;;;;;;;;;;4993669;28;20454;-67
2021/04/24 11:28:03;;;;;;;4.63;3.23;;;;;;;;;;4993699;28;20478;-67
2021/04/24 11:30:52;;;;;;;4.60;3.27;;;;;;;;;;4993397;28;20862;-67
2021/04/24 11:33:36;;;;;;;7.20;3.10;;;;;;;;;;4993789;28;20439;-67
2021/04/24 11:36:19;;;;;;;4.20;2.80;;;;;;;;;;4993333;28;20993;-67
2021/04/24 11:39:04;;;;;;;2.93;2.07;;;;;;;;;;4993528;28;20479;-67
2021/04/24 11:41:31;;;;;;;3.43;2.43;;;;;;;;;;4993895;28;20447;-67
2021/04/24 11:43:59;;;;;;;4.13;3.00;;;;;;;;;;4994402;28;20473;-68
2021/04/24 11:46:35;;;;;;;6.50;2.90;;;;;;;;;;4993751;28;20451;-67
2021/04/24 11:49:09;;;;;;;4.40;2.43;;;;;;;;;;4994324;28;20993;-67
2021/04/24 11:51:51;;;;;;;4.47;2.80;;;;;;;;;;4995390;28;20454;-67
2021/04/24 11:54:22;;;;;;;4.10;2.50;;;;;;;;;;4994757;28;20524;-67
2021/04/24 11:56:50;;;;;;;3.23;2.40;;;;;;;;;;4993729;28;20454;-67
2021/04/24 11:59:23;;;;;;;4.43;2.83;;;;;;;;;;4993022;28;20501;-67
2021/04/24 12:01:49;;;;;;;4.67;2.70;;;;;;;;;;4993221;28;20454;-66
2021/04/24 12:04:27;;;;;;;3.60;2.50;;;;;;;;;;4993858;28;20454;-67
2021/04/24 12:07:01;;;;;;;4.10;2.20;;;;;;;;;;4993738;28;20447;-67
2021/04/24 12:09:27;;;;;;;3.90;2.90;;;;;;;;;;4992790;28;20501;-67
2021/04/24 12:11:55;;;;;;;9.20;3.33;;;;;;;;;;5021969;23;20567;-61
2021/04/24 12:14:22;;;;;;;3.70;2.70;;;;;;;;;;5012338;28;20457;-61
2021/04/24 12:16:49;;;;;;;4.87;3.03;;;;;;;;;;5027132;28;20510;-62
2021/04/24 12:19:33;;;;;;;3.43;2.50;;;;;;;;;;5032104;28;20825;-62
2021/04/24 12:22:01;;;;;;;4.33;2.50;;;;;;;;;;5031771;28;20535;-62
2021/04/24 12:24:27;;;;;;;5.97;2.50;;;;;;;;;;5031730;28;20445;-62
2021/04/24 12:26:54;;;;;;;3.97;2.90;;;;;;;;;;5031320;28;20511;-62
2021/04/24 12:29:35;;;;;;;5.83;3.40;;;;;;;;;;5028390;28;20484;-62
2021/04/24 12:32:11;;;;;;;5.23;2.73;;;;;;;;;;4992165;28;20500;-61
2021/04/24 12:34:38;;;;;;;4.20;3.03;;;;;;;;;;4992964;28;20933;-62
2021/04/24 12:37:08;;;;;;;5.50;3.40;;;;;;;;;;4991609;28;20956;-61
2021/04/24 12:39:35;;;;;;;4.90;3.40;;;;;;;;;;4992211;28;20446;-62
2021/04/24 12:42:03;;;;;;;4.63;2.97;;;;;;;;;;4992242;28;20993;-62
2021/04/24 12:44:29;;;;;;;4.77;3.00;;;;;;;;;;4994572;28;20462;-62
2021/04/24 12:46:56;;;;;;;4.63;2.87;;;;;;;;;;5011576;28;20450;-62
2021/04/24 12:49:23;;;;;;;4.87;3.10;;;;;;;;;;5011846;28;20493;-62
2021/04/24 12:52:01;;;;;;;4.90;2.80;;;;;;;;;;5011413;28;20469;-62
2021/04/24 12:54:27;;;;;;;4.30;2.83;;;;;;;;;;5011846;28;20460;-62
2021/04/24 12:57:09;;;;;;;5.30;2.93;;;;;;;;;;5011628;28;20457;-62
2021/04/24 12:59:36;;;;;;;5.20;2.90;;;;;;;;;;5011393;28;20445;-62
2021/04/24 13:02:02;;;;;;;4.60;3.70;;;;;;;;;;5009598;28;20477;-61
2021/04/24 13:04:29;;;;;;;5.30;3.10;;;;;;;;;;5012026;28;20445;-62
2021/04/24 13:06:58;;;;;;;5.03;3.60;;;;;;;;;;5011734;28;20441;-62
2021/04/24 13:09:33;;;;;;;4.60;3.53;;;;;;;;;;5012203;28;20481;-62
2021/04/24 13:12:06;;;;;;;4.67;3.30;;;;;;;;;;5012130;28;20477;-62
2021/04/24 13:14:40;;;;;;;6.50;3.30;;;;;;;;;;5013347;28;20553;-61
2021/04/24 13:17:10;;;;;;;6.23;3.50;;;;;;;;;;5012611;28;20521;-62
2021/04/24 13:19:46;;;;;;;4.27;3.20;;;;;;;;;;5001399;28;20451;-61
2021/04/24 13:22:13;;;;;;;6.03;3.30;;;;;;;;;;4992058;28;20999;-62
2021/04/24 13:24:44;;;;;;;6.47;3.20;;;;;;;;;;4991862;28;20455;-61
2021/04/24 13:27:11;;;;;;;4.37;3.50;;;;;;;;;;4992224;28;20454;-62
2021/04/24 13:29:39;;;;;;;3.80;2.50;;;;;;;;;;4992355;28;20482;-62
2021/04/24 13:32:08;;;;;;;2.57;2.30;;;;;;;;;;4991916;28;20553;-61
2021/04/24 13:34:35;;;;;;;4.43;2.50;;;;;;;;;;4991685;28;20455;-62
2021/04/24 13:37:03;;;;;;;3.87;2.63;;;;;;;;;;4991588;28;20498;-62
2021/04/24 13:39:31;;;;;;;3.73;2.37;;;;;;;;;;4991826;28;20481;-62
2021/04/24 13:42:05;;;;;;;2.87;2.30;;;;;;;;;;4991777;28;20470;-61
2021/04/24 13:44:32;;;;;;;4.63;2.60;;;;;;;;;;4991891;28;20957;-62
2021/04/24 13:46:58;;;;;;;3.80;2.50;;;;;;;;;;4991870;28;20450;-62
2021/04/24 13:49:25;;;;;;;2.90;2.07;;;;;;;;;;4995410;28;20895;-62
2021/04/24 13:51:53;;;;;;;7.00;2.67;;;;;;;;;;4994917;28;20528;-62
2021/04/24 13:54:20;;;;;;;3.83;3.00;;;;;;;;;;4999147;28;20454;-62
2021/04/24 13:56:47;;;;;;;3.20;2.60;;;;;;;;;;5010200;28;20453;-62
2021/04/24 13:59:15;;;;;;;3.93;2.40;;;;;;;;;;5014941;28;20456;-61
2021/04/24 14:01:42;;;;;;;5.10;2.60;;;;;;;;;;5014552;28;20480;-62
2021/04/24 14:04:09;;;;;;;2.57;2.37;;;;;;;;;;5014536;28;20834;-62
2021/04/24 14:06:35;;;;;;;3.70;2.60;;;;;;;;;;5014281;28;20453;-62
2021/04/24 14:09:02;;;;;;;2.70;2.13;;;;;;;;;;5013210;28;20494;-62
2021/04/24 14:11:29;;;;;;;2.70;2.30;;;;;;;;;;4994548;28;21019;-62
2021/04/24 14:13:55;;;;;;;3.13;2.10;;;;;;;;;;4994988;28;20454;-62
2021/04/24 14:16:23;;;;;;;3.67;2.50;;;;;;;;;;4994512;28;20451;-62
2021/04/24 14:18:49;;;;;;;2.90;2.37;;;;;;;;;;4994227;28;20447;-62
2021/04/24 14:21:16;;;;;;;3.13;2.53;;;;;;;;;;4994301;28;21004;-61
2021/04/24 14:23:43;;;;;;;2.30;2.10;;;;;;;;;;4994584;28;20459;-61
2021/04/24 14:26:09;;;;;;;3.93;2.57;;;;;;;;;;5009521;28;20446;-61
2021/04/24 14:28:36;;;;;;;2.87;2.43;;;;;;;;;;4994604;28;20477;-62
2021/04/24 14:31:02;;;;;;;3.10;2.60;;;;;;;;;;4994179;28;20466;-61
2021/04/24 14:33:30;;;;;;;3.33;2.60;;;;;;;;;;4994246;28;20473;-62
2021/04/24 14:35:57;;;;;;;2.83;2.50;;;;;;;;;;4994304;28;20458;-61
2021/04/24 14:38:23;;;;;;;3.63;2.53;;;;;;;;;;4994501;28;20822;-62